Mount Crawford, Virginia
Current Conditions -  °F | °C
As of 3:15 PM on Saturday 25 Oct 2014 (Local Time) from KVBW Reporting Station
Clear Clear  
Wind Chill: 71°   Ceiling: Unl
Heat Index: 71°   Visibility: 10mi
Dew Point: 42°   Wind: 7mph
Humidity: 35%   Direction: 200°SSW
Pressure: 29.83"   Gusts: NA
Location:  38.36°N, 78.94°W
Report Text: KVBW 251915Z AUTO 20006KT 10SM CLR 22/05 A2983 RMK AO2 T02170054
Loading
Personal Weather Stations






























Interactive Weather Map
Tropical Storm Tracking
New forecast layout! Learn more

10-Day Weather Forecast

Advertisements
Track Severe Weather on mobile